Terminal Aerodrome Forecast
Issued by NWS Sterling, VA

Current Version | Previous Version | Text Only | Print | Product List | Glossary On
Versions: 1 2 3 4 5 6 7 8 9 10 11 12 13 14 15 16 17 18 19 20
000
FTUS41 KLWX 270500
TAFIAD
TAF
KIAD 270536Z 2706/2812 VRB03KT P6SM SKC
     FM270900 VRB03KT 5SM BR SKC
     FM271200 VRB03KT P6SM FEW250
     FM271900 VRB03KT P6SM SCT050
     FM280400 31005KT P6SM BKN050
     FM280900 34006KT P6SM SCT090=

USA.gov is the U.S. government's official web portal to all federal, state and local government web resources and services.